sensor_id;sensor_type;location;lat;lon;timestamp;P1;durP1;ratioP1;P2;durP2;ratioP2
14554;SDS011;7364;50.870;4.722;2023-06-05T00:00:42;4.20;;;2.50;;
14554;SDS011;7364;50.870;4.722;2023-06-05T00:03:09;4.93;;;3.03;;
14554;SDS011;7364;50.870;4.722;2023-06-05T00:05:37;5.17;;;2.77;;
14554;SDS011;7364;50.870;4.722;2023-06-05T00:08:04;4.00;;;2.97;;
14554;SDS011;7364;50.870;4.722;2023-06-05T00:10:31;4.90;;;3.27;;
14554;SDS011;7364;50.870;4.722;2023-06-05T00:12:59;6.73;;;3.10;;
14554;SDS011;7364;50.870;4.722;2023-06-05T00:15:26;6.33;;;3.10;;
14554;SDS011;7364;50.870;4.722;2023-06-05T00:17:55;5.40;;;2.63;;
14554;SDS011;7364;50.870;4.722;2023-06-05T00:20:22;5.50;;;3.03;;
14554;SDS011;7364;50.870;4.722;2023-06-05T00:22:49;5.27;;;2.90;;
14554;SDS011;7364;50.870;4.722;2023-06-05T00:25:16;6.77;;;3.03;;
14554;SDS011;7364;50.870;4.722;2023-06-05T00:27:44;3.93;;;2.90;;
14554;SDS011;7364;50.870;4.722;2023-06-05T00:30:11;5.87;;;2.80;;
14554;SDS011;7364;50.870;4.722;2023-06-05T00:32:39;4.20;;;2.70;;
14554;SDS011;7364;50.870;4.722;2023-06-05T00:35:08;3.70;;;2.67;;
14554;SDS011;7364;50.870;4.722;2023-06-05T00:37:35;8.77;;;2.73;;
14554;SDS011;7364;50.870;4.722;2023-06-05T00:40:03;7.10;;;3.10;;
14554;SDS011;7364;50.870;4.722;2023-06-05T00:42:32;4.43;;;3.10;;
14554;SDS011;7364;50.870;4.722;2023-06-05T00:44:59;5.27;;;3.00;;
14554;SDS011;7364;50.870;4.722;2023-06-05T00:47:26;6.33;;;3.20;;
14554;SDS011;7364;50.870;4.722;2023-06-05T00:49:54;5.77;;;3.27;;
14554;SDS011;7364;50.870;4.722;2023-06-05T00:52:23;4.37;;;3.03;;
14554;SDS011;7364;50.870;4.722;2023-06-05T00:54:51;5.83;;;3.00;;
14554;SDS011;7364;50.870;4.722;2023-06-05T00:57:18;6.67;;;2.87;;
14554;SDS011;7364;50.870;4.722;2023-06-05T00:59:50;6.50;;;3.70;;
14554;SDS011;7364;50.870;4.722;2023-06-05T01:02:18;3.60;;;3.00;;
14554;SDS011;7364;50.870;4.722;2023-06-05T01:04:46;6.70;;;3.67;;
14554;SDS011;7364;50.870;4.722;2023-06-05T01:07:14;7.70;;;5.47;;
14554;SDS011;7364;50.870;4.722;2023-06-05T01:09:43;11.10;;;6.17;;
14554;SDS011;7364;50.870;4.722;2023-06-05T01:12:19;7.67;;;4.63;;
14554;SDS011;7364;50.870;4.722;2023-06-05T01:14:52;5.80;;;3.23;;
14554;SDS011;7364;50.870;4.722;2023-06-05T01:17:24;5.53;;;3.30;;
14554;SDS011;7364;50.870;4.722;2023-06-05T01:19:53;5.50;;;3.10;;
14554;SDS011;7364;50.870;4.722;2023-06-05T01:22:25;5.60;;;3.43;;
14554;SDS011;7364;50.870;4.722;2023-06-05T01:24:54;4.40;;;2.90;;
14554;SDS011;7364;50.870;4.722;2023-06-05T01:27:24;6.50;;;3.30;;
14554;SDS011;7364;50.870;4.722;2023-06-05T01:30:06;3.63;;;2.83;;
14554;SDS011;7364;50.870;4.722;2023-06-05T01:32:40;4.20;;;3.10;;
14554;SDS011;7364;50.870;4.722;2023-06-05T01:35:19;6.17;;;3.67;;
14554;SDS011;7364;50.870;4.722;2023-06-05T01:37:53;5.63;;;3.40;;
14554;SDS011;7364;50.870;4.722;2023-06-05T01:40:26;5.73;;;3.00;;
14554;SDS011;7364;50.870;4.722;2023-06-05T01:42:54;6.20;;;3.97;;
14554;SDS011;7364;50.870;4.722;2023-06-05T01:45:21;4.30;;;3.03;;
14554;SDS011;7364;50.870;4.722;2023-06-05T01:47:49;5.30;;;3.40;;
14554;SDS011;7364;50.870;4.722;2023-06-05T01:50:18;5.17;;;3.20;;
14554;SDS011;7364;50.870;4.722;2023-06-05T01:52:47;6.43;;;2.97;;
14554;SDS011;7364;50.870;4.722;2023-06-05T01:55:15;5.33;;;3.23;;
14554;SDS011;7364;50.870;4.722;2023-06-05T01:57:46;4.43;;;3.40;;
14554;SDS011;7364;50.870;4.722;2023-06-05T02:00:14;6.23;;;3.43;;
14554;SDS011;7364;50.870;4.722;2023-06-05T02:02:43;5.13;;;2.80;;
14554;SDS011;7364;50.870;4.722;2023-06-05T02:05:11;4.43;;;3.13;;
14554;SDS011;7364;50.870;4.722;2023-06-05T02:07:40;5.33;;;3.43;;
14554;SDS011;7364;50.870;4.722;2023-06-05T02:10:08;4.80;;;3.20;;
14554;SDS011;7364;50.870;4.722;2023-06-05T02:12:36;5.90;;;3.60;;
14554;SDS011;7364;50.870;4.722;2023-06-05T02:15:05;7.60;;;3.80;;
14554;SDS011;7364;50.870;4.722;2023-06-05T02:17:33;5.30;;;2.70;;
14554;SDS011;7364;50.870;4.722;2023-06-05T02:20:02;6.00;;;3.27;;
14554;SDS011;7364;50.870;4.722;2023-06-05T02:22:30;4.27;;;2.97;;
14554;SDS011;7364;50.870;4.722;2023-06-05T02:24:57;5.67;;;3.80;;
14554;SDS011;7364;50.870;4.722;2023-06-05T02:27:25;6.37;;;3.23;;
14554;SDS011;7364;50.870;4.722;2023-06-05T02:29:52;6.30;;;3.83;;
14554;SDS011;7364;50.870;4.722;2023-06-05T02:32:21;5.63;;;3.30;;
14554;SDS011;7364;50.870;4.722;2023-06-05T02:34:51;6.17;;;4.63;;
14554;SDS011;7364;50.870;4.722;2023-06-05T02:37:22;7.43;;;3.93;;
14554;SDS011;7364;50.870;4.722;2023-06-05T02:39:50;5.43;;;3.30;;
14554;SDS011;7364;50.870;4.722;2023-06-05T02:42:17;5.83;;;3.30;;
14554;SDS011;7364;50.870;4.722;2023-06-05T02:44:45;5.00;;;3.40;;
14554;SDS011;7364;50.870;4.722;2023-06-05T02:47:12;6.53;;;4.20;;
14554;SDS011;7364;50.870;4.722;2023-06-05T02:49:41;6.80;;;3.43;;
14554;SDS011;7364;50.870;4.722;2023-06-05T02:52:08;7.27;;;3.87;;
14554;SDS011;7364;50.870;4.722;2023-06-05T02:54:35;6.77;;;3.63;;
14554;SDS011;7364;50.870;4.722;2023-06-05T02:57:04;6.47;;;3.83;;
14554;SDS011;7364;50.870;4.722;2023-06-05T02:59:31;6.13;;;3.63;;
14554;SDS011;7364;50.870;4.722;2023-06-05T03:02:04;6.13;;;3.70;;
14554;SDS011;7364;50.870;4.722;2023-06-05T03:04:32;9.30;;;4.23;;
14554;SDS011;7364;50.870;4.722;2023-06-05T03:07:01;8.33;;;4.43;;
14554;SDS011;7364;50.870;4.722;2023-06-05T03:09:29;7.10;;;4.37;;
14554;SDS011;7364;50.870;4.722;2023-06-05T03:11:56;5.47;;;4.30;;
14554;SDS011;7364;50.870;4.722;2023-06-05T03:14:24;7.80;;;3.90;;
14554;SDS011;7364;50.870;4.722;2023-06-05T03:16:52;5.33;;;4.17;;
14554;SDS011;7364;50.870;4.722;2023-06-05T03:19:20;7.40;;;4.23;;
14554;SDS011;7364;50.870;4.722;2023-06-05T03:21:47;6.20;;;3.77;;
14554;SDS011;7364;50.870;4.722;2023-06-05T03:24:16;4.83;;;3.87;;
14554;SDS011;7364;50.870;4.722;2023-06-05T03:26:45;7.50;;;4.47;;
14554;SDS011;7364;50.870;4.722;2023-06-05T03:29:12;7.23;;;3.80;;
14554;SDS011;7364;50.870;4.722;2023-06-05T03:31:40;6.43;;;4.23;;
14554;SDS011;7364;50.870;4.722;2023-06-05T03:34:08;8.30;;;4.07;;
14554;SDS011;7364;50.870;4.722;2023-06-05T03:36:35;7.90;;;4.33;;
14554;SDS011;7364;50.870;4.722;2023-06-05T03:39:04;7.13;;;3.83;;
14554;SDS011;7364;50.870;4.722;2023-06-05T03:41:33;6.13;;;4.20;;
14554;SDS011;7364;50.870;4.722;2023-06-05T03:44:00;7.10;;;4.20;;
14554;SDS011;7364;50.870;4.722;2023-06-05T03:46:29;10.07;;;4.17;;
14554;SDS011;7364;50.870;4.722;2023-06-05T03:48:56;8.23;;;4.13;;
14554;SDS011;7364;50.870;4.722;2023-06-05T03:51:26;6.90;;;4.50;;
14554;SDS011;7364;50.870;4.722;2023-06-05T03:53:55;7.17;;;5.03;;
14554;SDS011;7364;50.870;4.722;2023-06-05T03:56:23;6.93;;;4.10;;
14554;SDS011;7364;50.870;4.722;2023-06-05T03:58:55;5.97;;;4.50;;
14554;SDS011;7364;50.870;4.722;2023-06-05T04:01:23;6.17;;;4.30;;
14554;SDS011;7364;50.870;4.722;2023-06-05T04:03:50;6.87;;;4.20;;
14554;SDS011;7364;50.870;4.722;2023-06-05T04:06:17;5.80;;;4.63;;
14554;SDS011;7364;50.870;4.722;2023-06-05T04:08:45;4.77;;;3.97;;
14554;SDS011;7364;50.870;4.722;2023-06-05T04:11:12;6.53;;;4.03;;
14554;SDS011;7364;50.870;4.722;2023-06-05T04:13:40;8.53;;;4.77;;
14554;SDS011;7364;50.870;4.722;2023-06-05T04:16:09;12.10;;;4.90;;
14554;SDS011;7364;50.870;4.722;2023-06-05T04:18:36;9.30;;;4.37;;
14554;SDS011;7364;50.870;4.722;2023-06-05T04:21:04;6.27;;;4.60;;
14554;SDS011;7364;50.870;4.722;2023-06-05T04:23:31;8.63;;;5.23;;
14554;SDS011;7364;50.870;4.722;2023-06-05T04:25:58;6.80;;;4.73;;
14554;SDS011;7364;50.870;4.722;2023-06-05T04:28:26;12.37;;;5.20;;
14554;SDS011;7364;50.870;4.722;2023-06-05T04:30:53;7.47;;;5.13;;
14554;SDS011;7364;50.870;4.722;2023-06-05T04:33:22;6.50;;;4.50;;
14554;SDS011;7364;50.870;4.722;2023-06-05T04:35:49;4.83;;;4.20;;
14554;SDS011;7364;50.870;4.722;2023-06-05T04:38:18;6.83;;;4.37;;
14554;SDS011;7364;50.870;4.722;2023-06-05T04:40:46;7.43;;;4.70;;
14554;SDS011;7364;50.870;4.722;2023-06-05T04:43:15;6.73;;;4.60;;
14554;SDS011;7364;50.870;4.722;2023-06-05T04:45:42;6.17;;;4.53;;
14554;SDS011;7364;50.870;4.722;2023-06-05T04:48:11;5.77;;;4.93;;
14554;SDS011;7364;50.870;4.722;2023-06-05T04:50:39;8.07;;;5.03;;
14554;SDS011;7364;50.870;4.722;2023-06-05T04:53:07;6.90;;;5.07;;
14554;SDS011;7364;50.870;4.722;2023-06-05T04:55:34;5.77;;;4.67;;
14554;SDS011;7364;50.870;4.722;2023-06-05T04:58:01;9.17;;;5.17;;
14554;SDS011;7364;50.870;4.722;2023-06-05T05:00:29;9.47;;;5.37;;
14554;SDS011;7364;50.870;4.722;2023-06-05T05:02:56;6.57;;;5.50;;
14554;SDS011;7364;50.870;4.722;2023-06-05T05:05:24;7.53;;;4.90;;
14554;SDS011;7364;50.870;4.722;2023-06-05T05:07:53;9.47;;;5.20;;
14554;SDS011;7364;50.870;4.722;2023-06-05T05:10:20;6.00;;;5.40;;
14554;SDS011;7364;50.870;4.722;2023-06-05T05:12:48;9.47;;;5.73;;
14554;SDS011;7364;50.870;4.722;2023-06-05T05:15:15;10.17;;;4.70;;
14554;SDS011;7364;50.870;4.722;2023-06-05T05:17:42;8.70;;;5.97;;
14554;SDS011;7364;50.870;4.722;2023-06-05T05:20:10;6.73;;;5.37;;
14554;SDS011;7364;50.870;4.722;2023-06-05T05:22:37;8.47;;;5.73;;
14554;SDS011;7364;50.870;4.722;2023-06-05T05:25:08;10.57;;;5.90;;
14554;SDS011;7364;50.870;4.722;2023-06-05T05:27:35;8.63;;;5.20;;
14554;SDS011;7364;50.870;4.722;2023-06-05T05:30:03;12.03;;;6.33;;
14554;SDS011;7364;50.870;4.722;2023-06-05T05:32:31;9.80;;;5.73;;
14554;SDS011;7364;50.870;4.722;2023-06-05T05:34:58;8.27;;;6.13;;
14554;SDS011;7364;50.870;4.722;2023-06-05T05:37:25;8.20;;;5.87;;
14554;SDS011;7364;50.870;4.722;2023-06-05T05:39:52;8.53;;;5.80;;
14554;SDS011;7364;50.870;4.722;2023-06-05T05:42:21;7.83;;;5.63;;
14554;SDS011;7364;50.870;4.722;2023-06-05T05:44:48;7.13;;;5.87;;
14554;SDS011;7364;50.870;4.722;2023-06-05T05:47:16;9.37;;;6.03;;
14554;SDS011;7364;50.870;4.722;2023-06-05T05:49:43;6.33;;;5.40;;
14554;SDS011;7364;50.870;4.722;2023-06-05T05:52:10;7.40;;;6.27;;
14554;SDS011;7364;50.870;4.722;2023-06-05T05:54:37;8.10;;;5.80;;
14554;SDS011;7364;50.870;4.722;2023-06-05T05:57:05;9.20;;;5.27;;
14554;SDS011;7364;50.870;4.722;2023-06-05T05:59:33;9.77;;;6.17;;
14554;SDS011;7364;50.870;4.722;2023-06-05T06:02:01;8.23;;;6.17;;
14554;SDS011;7364;50.870;4.722;2023-06-05T06:04:33;8.80;;;5.47;;
14554;SDS011;7364;50.870;4.722;2023-06-05T06:07:01;11.53;;;6.07;;
14554;SDS011;7364;50.870;4.722;2023-06-05T06:09:28;7.63;;;5.70;;
14554;SDS011;7364;50.870;4.722;2023-06-05T06:11:55;8.27;;;6.47;;
14554;SDS011;7364;50.870;4.722;2023-06-05T06:14:24;10.10;;;6.47;;
14554;SDS011;7364;50.870;4.722;2023-06-05T06:16:52;10.20;;;5.63;;
14554;SDS011;7364;50.870;4.722;2023-06-05T06:19:21;9.20;;;6.07;;
14554;SDS011;7364;50.870;4.722;2023-06-05T06:21:49;8.77;;;6.53;;
14554;SDS011;7364;50.870;4.722;2023-06-05T06:24:16;9.10;;;6.10;;
14554;SDS011;7364;50.870;4.722;2023-06-05T06:26:46;9.37;;;6.00;;
14554;SDS011;7364;50.870;4.722;2023-06-05T06:29:14;11.40;;;6.67;;
14554;SDS011;7364;50.870;4.722;2023-06-05T06:31:44;8.27;;;5.90;;
14554;SDS011;7364;50.870;4.722;2023-06-05T06:34:13;8.83;;;6.10;;
14554;SDS011;7364;50.870;4.722;2023-06-05T06:36:41;9.60;;;6.47;;
14554;SDS011;7364;50.870;4.722;2023-06-05T06:39:09;9.53;;;6.40;;
14554;SDS011;7364;50.870;4.722;2023-06-05T06:41:37;10.33;;;6.30;;
14554;SDS011;7364;50.870;4.722;2023-06-05T06:44:05;9.20;;;6.33;;
14554;SDS011;7364;50.870;4.722;2023-06-05T06:46:32;9.43;;;6.50;;
14554;SDS011;7364;50.870;4.722;2023-06-05T06:48:59;9.30;;;6.33;;
14554;SDS011;7364;50.870;4.722;2023-06-05T06:51:28;7.03;;;5.83;;
14554;SDS011;7364;50.870;4.722;2023-06-05T06:53:55;9.33;;;6.03;;
14554;SDS011;7364;50.870;4.722;2023-06-05T06:56:23;8.40;;;5.90;;
14554;SDS011;7364;50.870;4.722;2023-06-05T06:58:52;8.53;;;6.07;;
14554;SDS011;7364;50.870;4.722;2023-06-05T07:01:20;12.33;;;7.20;;
14554;SDS011;7364;50.870;4.722;2023-06-05T07:03:49;7.87;;;6.10;;
14554;SDS011;7364;50.870;4.722;2023-06-05T07:06:16;7.63;;;6.17;;
14554;SDS011;7364;50.870;4.722;2023-06-05T07:08:48;10.00;;;6.63;;
14554;SDS011;7364;50.870;4.722;2023-06-05T07:11:15;8.90;;;5.90;;
14554;SDS011;7364;50.870;4.722;2023-06-05T07:13:42;8.83;;;6.43;;
14554;SDS011;7364;50.870;4.722;2023-06-05T07:16:10;9.00;;;6.40;;
14554;SDS011;7364;50.870;4.722;2023-06-05T07:18:37;9.03;;;6.50;;
14554;SDS011;7364;50.870;4.722;2023-06-05T07:21:05;8.53;;;6.43;;
14554;SDS011;7364;50.870;4.722;2023-06-05T07:23:33;8.47;;;6.10;;
14554;SDS011;7364;50.870;4.722;2023-06-05T07:26:03;8.10;;;6.10;;
14554;SDS011;7364;50.870;4.722;2023-06-05T07:28:30;8.53;;;6.43;;
14554;SDS011;7364;50.870;4.722;2023-06-05T07:30:58;9.70;;;6.83;;
14554;SDS011;7364;50.870;4.722;2023-06-05T07:33:29;6.70;;;5.23;;
14554;SDS011;7364;50.870;4.722;2023-06-05T07:35:56;9.73;;;6.53;;
14554;SDS011;7364;50.870;4.722;2023-06-05T07:38:25;10.20;;;6.70;;
14554;SDS011;7364;50.870;4.722;2023-06-05T07:40:52;9.13;;;6.47;;
14554;SDS011;7364;50.870;4.722;2023-06-05T07:43:23;8.73;;;7.37;;
14554;SDS011;7364;50.870;4.722;2023-06-05T07:45:51;9.07;;;6.80;;
14554;SDS011;7364;50.870;4.722;2023-06-05T07:48:18;7.63;;;6.70;;
14554;SDS011;7364;50.870;4.722;2023-06-05T07:50:45;11.77;;;9.45;;
14554;SDS011;7364;50.870;4.722;2023-06-05T07:53:13;11.27;;;7.23;;
14554;SDS011;7364;50.870;4.722;2023-06-05T07:55:40;9.27;;;7.10;;
14554;SDS011;7364;50.870;4.722;2023-06-05T07:58:07;8.87;;;7.33;;
14554;SDS011;7364;50.870;4.722;2023-06-05T08:00:36;9.57;;;7.03;;
14554;SDS011;7364;50.870;4.722;2023-06-05T08:03:03;10.70;;;6.73;;
14554;SDS011;7364;50.870;4.722;2023-06-05T08:05:30;9.00;;;7.60;;
14554;SDS011;7364;50.870;4.722;2023-06-05T08:07:59;9.67;;;7.03;;
14554;SDS011;7364;50.870;4.722;2023-06-05T08:10:27;10.97;;;7.37;;
14554;SDS011;7364;50.870;4.722;2023-06-05T08:12:55;7.80;;;7.00;;
14554;SDS011;7364;50.870;4.722;2023-06-05T08:15:22;14.30;;;8.80;;
14554;SDS011;7364;50.870;4.722;2023-06-05T08:17:51;18.57;;;8.10;;
14554;SDS011;7364;50.870;4.722;2023-06-05T08:20:19;9.80;;;7.23;;
14554;SDS011;7364;50.870;4.722;2023-06-05T08:22:46;13.10;;;7.70;;
14554;SDS011;7364;50.870;4.722;2023-06-05T08:25:14;8.93;;;7.23;;
14554;SDS011;7364;50.870;4.722;2023-06-05T08:27:41;9.40;;;6.97;;
14554;SDS011;7364;50.870;4.722;2023-06-05T08:30:09;11.93;;;8.40;;
14554;SDS011;7364;50.870;4.722;2023-06-05T08:32:37;12.00;;;8.30;;
14554;SDS011;7364;50.870;4.722;2023-06-05T08:35:07;10.47;;;8.23;;
14554;SDS011;7364;50.870;4.722;2023-06-05T08:37:35;9.63;;;7.47;;
14554;SDS011;7364;50.870;4.722;2023-06-05T08:40:02;10.87;;;7.33;;
14554;SDS011;7364;50.870;4.722;2023-06-05T08:42:31;10.73;;;7.00;;
14554;SDS011;7364;50.870;4.722;2023-06-05T08:44:59;11.43;;;7.47;;
14554;SDS011;7364;50.870;4.722;2023-06-05T08:47:27;11.43;;;8.40;;
14554;SDS011;7364;50.870;4.722;2023-06-05T08:49:55;9.13;;;7.97;;
14554;SDS011;7364;50.870;4.722;2023-06-05T08:52:27;9.17;;;7.97;;
14554;SDS011;7364;50.870;4.722;2023-06-05T08:54:55;9.77;;;7.80;;
14554;SDS011;7364;50.870;4.722;2023-06-05T08:57:25;9.83;;;7.10;;
14554;SDS011;7364;50.870;4.722;2023-06-05T08:59:53;9.90;;;8.07;;
14554;SDS011;7364;50.870;4.722;2023-06-05T09:02:21;12.87;;;8.63;;
14554;SDS011;7364;50.870;4.722;2023-06-05T09:04:48;11.07;;;8.10;;
14554;SDS011;7364;50.870;4.722;2023-06-05T09:07:16;11.07;;;8.23;;
14554;SDS011;7364;50.870;4.722;2023-06-05T09:09:45;11.77;;;8.53;;
14554;SDS011;7364;50.870;4.722;2023-06-05T09:12:13;11.20;;;8.93;;
14554;SDS011;7364;50.870;4.722;2023-06-05T09:14:40;10.33;;;8.93;;
14554;SDS011;7364;50.870;4.722;2023-06-05T09:17:11;14.73;;;8.33;;
14554;SDS011;7364;50.870;4.722;2023-06-05T09:19:40;10.33;;;7.83;;
14554;SDS011;7364;50.870;4.722;2023-06-05T09:22:09;10.40;;;7.90;;
14554;SDS011;7364;50.870;4.722;2023-06-05T09:24:38;12.97;;;8.87;;
14554;SDS011;7364;50.870;4.722;2023-06-05T09:27:08;9.37;;;7.67;;
14554;SDS011;7364;50.870;4.722;2023-06-05T09:29:37;8.63;;;7.77;;
14554;SDS011;7364;50.870;4.722;2023-06-05T09:32:07;8.63;;;7.53;;
14554;SDS011;7364;50.870;4.722;2023-06-05T09:34:35;9.90;;;7.70;;
14554;SDS011;7364;50.870;4.722;2023-06-05T09:37:03;9.00;;;8.10;;
14554;SDS011;7364;50.870;4.722;2023-06-05T09:39:32;10.60;;;8.13;;
14554;SDS011;7364;50.870;4.722;2023-06-05T09:42:01;9.07;;;8.00;;
14554;SDS011;7364;50.870;4.722;2023-06-05T09:44:30;20.03;;;8.63;;
14554;SDS011;7364;50.870;4.722;2023-06-05T09:46:59;8.57;;;7.67;;
14554;SDS011;7364;50.870;4.722;2023-06-05T09:49:29;7.37;;;6.30;;
14554;SDS011;7364;50.870;4.722;2023-06-05T09:51:58;12.13;;;8.17;;
14554;SDS011;7364;50.870;4.722;2023-06-05T09:54:27;10.47;;;7.40;;
14554;SDS011;7364;50.870;4.722;2023-06-05T09:56:56;10.77;;;7.90;;
14554;SDS011;7364;50.870;4.722;2023-06-05T09:59:26;13.93;;;8.20;;
14554;SDS011;7364;50.870;4.722;2023-06-05T10:01:59;8.07;;;6.87;;
14554;SDS011;7364;50.870;4.722;2023-06-05T10:04:28;8.40;;;6.83;;
14554;SDS011;7364;50.870;4.722;2023-06-05T10:06:58;12.73;;;8.70;;
14554;SDS011;7364;50.870;4.722;2023-06-05T10:09:28;10.83;;;8.10;;
14554;SDS011;7364;50.870;4.722;2023-06-05T10:11:56;12.13;;;7.13;;
14554;SDS011;7364;50.870;4.722;2023-06-05T10:14:23;9.77;;;7.77;;
14554;SDS011;7364;50.870;4.722;2023-06-05T10:16:51;19.73;;;16.27;;
14554;SDS011;7364;50.870;4.722;2023-06-05T10:19:21;11.20;;;8.47;;
14554;SDS011;7364;50.870;4.722;2023-06-05T10:21:50;10.73;;;7.00;;
14554;SDS011;7364;50.870;4.722;2023-06-05T10:24:19;9.37;;;6.67;;
14554;SDS011;7364;50.870;4.722;2023-06-05T10:30:02;8.87;;;6.80;;
14554;SDS011;7364;50.870;4.722;2023-06-05T10:33:00;8.33;;;7.50;;
14554;SDS011;7364;50.870;4.722;2023-06-05T10:35:40;7.60;;;6.80;;
14554;SDS011;7364;50.870;4.722;2023-06-05T10:38:18;10.90;;;7.17;;
14554;SDS011;7364;50.870;4.722;2023-06-05T10:40:48;8.63;;;5.90;;
14554;SDS011;7364;50.870;4.722;2023-06-05T10:43:29;7.30;;;5.87;;
14554;SDS011;7364;50.870;4.722;2023-06-05T10:45:58;12.10;;;6.50;;
14554;SDS011;7364;50.870;4.722;2023-06-05T10:51:33;7.93;;;5.97;;
14554;SDS011;7364;50.870;4.722;2023-06-05T10:54:03;12.17;;;6.23;;
14554;SDS011;7364;50.870;4.722;2023-06-05T10:59:25;6.57;;;4.90;;
14554;SDS011;7364;50.870;4.722;2023-06-05T11:05:04;7.67;;;5.43;;
14554;SDS011;7364;50.870;4.722;2023-06-05T11:07:37;6.33;;;5.03;;
14554;SDS011;7364;50.870;4.722;2023-06-05T11:12:59;8.30;;;5.67;;
14554;SDS011;7364;50.870;4.722;2023-06-05T11:15:35;6.03;;;5.43;;
14554;SDS011;7364;50.870;4.722;2023-06-05T11:20:56;6.37;;;5.20;;
14554;SDS011;7364;50.870;4.722;2023-06-05T11:23:25;9.17;;;5.47;;
14554;SDS011;7364;50.870;4.722;2023-06-05T11:28:58;7.37;;;5.37;;
14554;SDS011;7364;50.870;4.722;2023-06-05T11:31:29;7.57;;;5.00;;
14554;SDS011;7364;50.870;4.722;2023-06-05T11:33:58;6.35;;;4.72;;
14554;SDS011;7364;50.870;4.722;2023-06-05T11:36:25;6.50;;;5.18;;
14554;SDS011;7364;50.870;4.722;2023-06-05T11:38:54;7.90;;;5.32;;
14554;SDS011;7364;50.870;4.722;2023-06-05T11:41:23;9.13;;;6.13;;
14554;SDS011;7364;50.870;4.722;2023-06-05T11:43:51;6.38;;;4.50;;
14554;SDS011;7364;50.870;4.722;2023-06-05T11:46:18;6.88;;;4.13;;
14554;SDS011;7364;50.870;4.722;2023-06-05T11:48:46;5.70;;;4.47;;
14554;SDS011;7364;50.870;4.722;2023-06-05T11:51:13;6.40;;;4.15;;
14554;SDS011;7364;50.870;4.722;2023-06-05T11:53:44;4.95;;;3.65;;
14554;SDS011;7364;50.870;4.722;2023-06-05T11:56:15;3.45;;;2.85;;
14554;SDS011;7364;50.870;4.722;2023-06-05T11:58:43;4.55;;;3.25;;
14554;SDS011;7364;50.870;4.722;2023-06-05T12:01:12;5.75;;;3.10;;
14554;SDS011;7364;50.870;4.722;2023-06-05T12:03:43;4.57;;;3.40;;
14554;SDS011;7364;50.870;4.722;2023-06-05T12:06:11;5.55;;;4.05;;
14554;SDS011;7364;50.870;4.722;2023-06-05T12:08:39;4.65;;;3.28;;
14554;SDS011;7364;50.870;4.722;2023-06-05T12:11:22;4.93;;;3.28;;
14554;SDS011;7364;50.870;4.722;2023-06-05T12:13:51;6.68;;;4.18;;
14554;SDS011;7364;50.870;4.722;2023-06-05T12:16:19;4.00;;;2.60;;
14554;SDS011;7364;50.870;4.722;2023-06-05T12:18:56;5.35;;;3.35;;
14554;SDS011;7364;50.870;4.722;2023-06-05T12:21:24;3.60;;;3.05;;
14554;SDS011;7364;50.870;4.722;2023-06-05T12:24:00;7.68;;;2.90;;
14554;SDS011;7364;50.870;4.722;2023-06-05T12:26:29;5.20;;;3.00;;
14554;SDS011;7364;50.870;4.722;2023-06-05T12:29:14;7.22;;;3.08;;
14554;SDS011;7364;50.870;4.722;2023-06-05T12:31:42;3.90;;;3.20;;
14554;SDS011;7364;50.870;4.722;2023-06-05T12:34:10;5.40;;;2.97;;
14554;SDS011;7364;50.870;4.722;2023-06-05T12:36:38;3.90;;;2.80;;
14554;SDS011;7364;50.870;4.722;2023-06-05T12:39:06;4.07;;;3.13;;
14554;SDS011;7364;50.870;4.722;2023-06-05T12:41:37;4.47;;;2.85;;
14554;SDS011;7364;50.870;4.722;2023-06-05T12:44:04;5.22;;;2.75;;
14554;SDS011;7364;50.870;4.722;2023-06-05T12:46:33;4.43;;;2.75;;
14554;SDS011;7364;50.870;4.722;2023-06-05T12:49:01;4.75;;;3.40;;
14554;SDS011;7364;50.870;4.722;2023-06-05T12:51:30;6.18;;;3.22;;
14554;SDS011;7364;50.870;4.722;2023-06-05T12:53:57;4.85;;;2.50;;
14554;SDS011;7364;50.870;4.722;2023-06-05T12:56:25;6.80;;;3.00;;
14554;SDS011;7364;50.870;4.722;2023-06-05T12:58:57;6.03;;;2.65;;
14554;SDS011;7364;50.870;4.722;2023-06-05T13:01:25;5.75;;;3.05;;
14554;SDS011;7364;50.870;4.722;2023-06-05T13:03:53;4.78;;;2.80;;
14554;SDS011;7364;50.870;4.722;2023-06-05T13:06:21;3.45;;;2.70;;
14554;SDS011;7364;50.870;4.722;2023-06-05T13:08:49;4.60;;;3.25;;
14554;SDS011;7364;50.870;4.722;2023-06-05T13:11:17;4.10;;;3.03;;
14554;SDS011;7364;50.870;4.722;2023-06-05T13:13:45;4.63;;;2.60;;
14554;SDS011;7364;50.870;4.722;2023-06-05T13:16:13;5.85;;;3.22;;
14554;SDS011;7364;50.870;4.722;2023-06-05T13:18:41;4.35;;;3.22;;
14554;SDS011;7364;50.870;4.722;2023-06-05T13:21:08;4.22;;;3.17;;
14554;SDS011;7364;50.870;4.722;2023-06-05T13:23:35;4.95;;;3.10;;
14554;SDS011;7364;50.870;4.722;2023-06-05T13:26:03;2.97;;;2.63;;
14554;SDS011;7364;50.870;4.722;2023-06-05T13:28:30;3.15;;;2.42;;
14554;SDS011;7364;50.870;4.722;2023-06-05T13:30:57;4.63;;;3.03;;
14554;SDS011;7364;50.870;4.722;2023-06-05T13:33:28;3.25;;;2.65;;
14554;SDS011;7364;50.870;4.722;2023-06-05T13:35:55;3.65;;;2.70;;
14554;SDS011;7364;50.870;4.722;2023-06-05T13:38:23;4.50;;;2.90;;
14554;SDS011;7364;50.870;4.722;2023-06-05T13:40:50;4.13;;;2.78;;
14554;SDS011;7364;50.870;4.722;2023-06-05T13:43:18;5.40;;;3.20;;
14554;SDS011;7364;50.870;4.722;2023-06-05T13:45:46;4.95;;;3.33;;
14554;SDS011;7364;50.870;4.722;2023-06-05T13:48:13;5.63;;;3.38;;
14554;SDS011;7364;50.870;4.722;2023-06-05T13:50:42;4.47;;;3.17;;
14554;SDS011;7364;50.870;4.722;2023-06-05T13:53:10;3.67;;;2.88;;
14554;SDS011;7364;50.870;4.722;2023-06-05T13:55:37;4.03;;;3.05;;
14554;SDS011;7364;50.870;4.722;2023-06-05T13:58:06;3.90;;;2.92;;
14554;SDS011;7364;50.870;4.722;2023-06-05T14:00:34;7.38;;;3.28;;
14554;SDS011;7364;50.870;4.722;2023-06-05T14:03:01;6.43;;;2.50;;
14554;SDS011;7364;50.870;4.722;2023-06-05T14:05:29;4.75;;;2.60;;
14554;SDS011;7364;50.870;4.722;2023-06-05T14:07:58;4.63;;;3.10;;
14554;SDS011;7364;50.870;4.722;2023-06-05T14:10:25;3.53;;;2.67;;
14554;SDS011;7364;50.870;4.722;2023-06-05T14:12:53;4.13;;;2.97;;
14554;SDS011;7364;50.870;4.722;2023-06-05T14:15:20;4.10;;;2.97;;
14554;SDS011;7364;50.870;4.722;2023-06-05T14:17:49;4.35;;;2.75;;
14554;SDS011;7364;50.870;4.722;2023-06-05T14:20:18;4.18;;;2.70;;
14554;SDS011;7364;50.870;4.722;2023-06-05T14:22:45;4.93;;;2.80;;
14554;SDS011;7364;50.870;4.722;2023-06-05T14:25:14;6.22;;;2.70;;
14554;SDS011;7364;50.870;4.722;2023-06-05T14:27:41;4.00;;;2.67;;
14554;SDS011;7364;50.870;4.722;2023-06-05T14:30:09;3.65;;;2.60;;
14554;SDS011;7364;50.870;4.722;2023-06-05T14:32:37;7.15;;;2.85;;
14554;SDS011;7364;50.870;4.722;2023-06-05T14:35:04;5.25;;;2.97;;
14554;SDS011;7364;50.870;4.722;2023-06-05T14:37:32;5.45;;;2.75;;
14554;SDS011;7364;50.870;4.722;2023-06-05T14:39:59;6.85;;;3.08;;
14554;SDS011;7364;50.870;4.722;2023-06-05T14:42:28;5.57;;;3.10;;
14554;SDS011;7364;50.870;4.722;2023-06-05T14:44:56;4.45;;;2.97;;
14554;SDS011;7364;50.870;4.722;2023-06-05T14:47:23;4.95;;;2.83;;
14554;SDS011;7364;50.870;4.722;2023-06-05T14:49:51;3.35;;;2.55;;
14554;SDS011;7364;50.870;4.722;2023-06-05T14:52:18;4.30;;;2.75;;
14554;SDS011;7364;50.870;4.722;2023-06-05T14:54:45;5.82;;;2.65;;
14554;SDS011;7364;50.870;4.722;2023-06-05T14:57:13;3.92;;;2.83;;
14554;SDS011;7364;50.870;4.722;2023-06-05T14:59:42;4.13;;;2.78;;
14554;SDS011;7364;50.870;4.722;2023-06-05T15:02:09;3.97;;;3.00;;
14554;SDS011;7364;50.870;4.722;2023-06-05T15:04:36;4.13;;;3.22;;
14554;SDS011;7364;50.870;4.722;2023-06-05T15:07:03;5.25;;;3.42;;
14554;SDS011;7364;50.870;4.722;2023-06-05T15:09:31;7.05;;;3.08;;
14554;SDS011;7364;50.870;4.722;2023-06-05T15:11:58;5.28;;;2.83;;
14554;SDS011;7364;50.870;4.722;2023-06-05T15:14:26;6.80;;;3.47;;
14554;SDS011;7364;50.870;4.722;2023-06-05T15:16:54;5.38;;;2.88;;
14554;SDS011;7364;50.870;4.722;2023-06-05T15:19:22;4.50;;;3.22;;
14554;SDS011;7364;50.870;4.722;2023-06-05T15:21:49;5.20;;;2.95;;
14554;SDS011;7364;50.870;4.722;2023-06-05T15:24:16;8.98;;;3.53;;
14554;SDS011;7364;50.870;4.722;2023-06-05T15:26:43;4.40;;;3.17;;
14554;SDS011;7364;50.870;4.722;2023-06-05T15:29:11;6.68;;;3.45;;